createdAt,value
2023-04-23T00:00:13.511Z,100108.53
2023-04-23T00:02:42.822Z,100112.94
2023-04-23T00:05:14.272Z,100113.97
2023-04-23T00:07:42.833Z,100112.28
2023-04-23T00:10:11.770Z,100118.53
2023-04-23T00:12:43.981Z,100105.41
2023-04-23T00:15:13.364Z,100109.78
2023-04-23T00:17:41.858Z,100105.41
2023-04-23T00:20:14.146Z,100101.97
2023-04-23T00:22:43.540Z,100110.72
2023-04-23T00:25:11.629Z,100110.81
2023-04-23T00:27:40.857Z,100110.81
2023-04-23T00:30:09.969Z,100110.06
2023-04-23T00:32:37.865Z,100112.72
2023-04-23T00:35:07.046Z,100118.94
2023-04-23T00:37:35.042Z,100123.38
2023-04-23T00:40:04.695Z,100131.28
2023-04-23T00:42:32.585Z,100123.28
2023-04-23T00:45:02.389Z,100113.66
2023-04-23T00:47:30.486Z,100118.81
2023-04-23T00:49:58.378Z,100126.72
2023-04-23T00:52:26.275Z,100120.72
2023-04-23T00:54:54.138Z,100120.72
2023-04-23T00:57:22.069Z,100126.91
2023-04-23T00:59:50.054Z,100121.75
2023-04-23T01:02:19.626Z,100127.25
2023-04-23T01:04:50.926Z,100126.59
2023-04-23T01:07:18.788Z,100124.09
2023-04-23T01:09:46.671Z,100120.78
2023-04-23T01:12:14.742Z,100112.97
2023-04-23T01:14:42.812Z,100113.16
2023-04-23T01:17:12.233Z,100114.31
2023-04-23T01:19:41.747Z,100112.84
2023-04-23T01:22:11.950Z,100109.31
2023-04-23T01:24:40.046Z,100113.97
2023-04-23T01:27:08.700Z,100119.56
2023-04-23T01:29:36.585Z,100118.88
2023-04-23T01:32:04.501Z,100122.69
2023-04-23T01:34:32.615Z,100116.59
2023-04-23T01:37:00.535Z,100126.31
2023-04-23T01:39:29.772Z,100117.56
2023-04-23T01:41:58.372Z,100117.63
2023-04-23T01:44:26.267Z,100125.88
2023-04-23T01:46:54.261Z,100132.06
2023-04-23T01:49:22.111Z,100125.97
2023-04-23T01:51:50.411Z,100120.03
2023-04-23T01:54:18.547Z,100125.19
2023-04-23T01:56:48.294Z,100117.97
2023-04-23T01:59:16.212Z,100119.63
2023-04-23T02:01:45.313Z,100119.63
2023-04-23T02:04:13.727Z,100120.66
2023-04-23T02:06:41.863Z,100128.53
2023-04-23T02:09:09.710Z,100128.47
2023-04-23T02:11:37.615Z,100125.81
2023-04-23T02:14:06.966Z,100118.75
2023-04-23T02:16:35.156Z,100112.66
2023-04-23T02:19:03.019Z,100110.25
2023-04-23T02:21:30.896Z,100116.88
2023-04-23T02:23:58.763Z,100117.16
2023-04-23T02:26:27.290Z,100120.84
2023-04-23T02:28:55.152Z,100119.91
2023-04-23T02:31:24.478Z,100123.44
2023-04-23T02:33:52.699Z,100120.78
2023-04-23T02:36:20.750Z,100124.19
2023-04-23T02:38:51.090Z,100121.53
2023-04-23T02:41:19.085Z,100118.88
2023-04-23T02:43:46.966Z,100123.22
2023-04-23T02:46:14.919Z,100121.44
2023-04-23T02:48:44.313Z,100123.94
2023-04-23T02:51:13.290Z,100124.88
2023-04-23T02:53:41.152Z,100125.84
2023-04-23T02:56:09.076Z,100123.22
2023-04-23T02:58:37.119Z,100131.22
2023-04-23T03:01:05.373Z,100121.59
2023-04-23T03:03:33.606Z,100125.22
2023-04-23T03:06:03.131Z,100118.09
2023-04-23T03:08:31.022Z,100119.22
2023-04-23T03:10:59.367Z,100128.31
2023-04-23T03:13:27.620Z,100112.69
2023-04-23T03:15:57.112Z,100124.63
2023-04-23T03:18:24.958Z,100115.28
2023-04-23T03:20:52.848Z,100114.69
2023-04-23T03:23:22.104Z,100120.19
2023-04-23T03:25:50.004Z,100115.25
2023-04-23T03:28:17.902Z,100115.19
2023-04-23T03:30:45.778Z,100121.53
2023-04-23T03:33:13.699Z,100124.44
2023-04-23T03:35:41.567Z,100120.13
2023-04-23T03:38:09.438Z,100122.19
2023-04-23T03:40:38.686Z,100116.09
2023-04-23T03:43:06.595Z,100117.97
2023-04-23T03:45:34.498Z,100110.44
2023-04-23T03:48:02.388Z,100128.88
2023-04-23T03:50:31.834Z,100126.38
2023-04-23T03:52:59.732Z,100122.00
2023-04-23T03:55:27.624Z,100123.88
2023-04-23T03:57:56.901Z,100123.78
2023-04-23T04:00:25.035Z,100115.91
2023-04-23T04:02:53.011Z,100112.38
2023-04-23T04:05:21.132Z,100121.31
2023-04-23T04:07:49.048Z,100123.88
2023-04-23T04:10:16.953Z,100109.13
2023-04-23T04:12:47.689Z,100125.59
2023-04-23T04:15:17.663Z,100114.94
2023-04-23T04:17:46.074Z,100116.00
2023-04-23T04:20:14.110Z,100111.72
2023-04-23T04:22:41.983Z,100102.97
2023-04-23T04:25:10.155Z,100105.78
2023-04-23T04:27:39.177Z,100108.44
2023-04-23T04:30:08.360Z,100100.47
2023-04-23T04:32:38.878Z,100112.88
2023-04-23T04:35:08.896Z,100111.00
2023-04-23T04:37:36.945Z,100117.19
2023-04-23T04:40:08.425Z,100107.22
2023-04-23T04:42:36.324Z,100129.22
2023-04-23T04:45:04.543Z,100128.97
2023-04-23T04:47:32.724Z,100119.78
2023-04-23T04:50:02.027Z,100126.47
2023-04-23T04:52:29.883Z,100113.78
2023-04-23T04:54:57.742Z,100110.88
2023-04-23T04:57:25.643Z,100103.66
2023-04-23T04:59:53.949Z,100101.88
2023-04-23T05:02:23.408Z,100109.00
2023-04-23T05:04:51.401Z,100110.78
2023-04-23T05:07:20.661Z,100097.59
2023-04-23T05:09:48.619Z,100103.94
2023-04-23T05:12:16.508Z,100089.97
2023-04-23T05:14:44.402Z,100103.41
2023-04-23T05:17:12.319Z,100105.38
2023-04-23T05:19:40.186Z,100097.56
2023-04-23T05:22:08.084Z,100076.13
2023-04-23T05:24:37.312Z,100100.31
2023-04-23T05:27:05.313Z,100096.03
2023-04-23T05:29:33.288Z,100097.72
2023-04-23T05:32:01.199Z,100102.03
2023-04-23T05:34:29.160Z,100098.44
2023-04-23T05:36:56.996Z,100104.44
2023-04-23T05:39:24.978Z,100105.13
2023-04-23T05:41:54.393Z,100105.91
2023-04-23T05:44:22.237Z,100101.44
2023-04-23T05:46:50.114Z,100108.47
2023-04-23T05:49:18.037Z,100104.09
2023-04-23T05:51:46.669Z,100109.34
2023-04-23T05:54:14.636Z,100104.94
2023-04-23T05:56:42.553Z,100101.44
2023-04-23T05:59:12.125Z,100105.03
2023-04-23T06:01:39.978Z,100105.91
2023-04-23T06:04:08.547Z,100102.19
2023-04-23T06:06:36.603Z,100104.78
2023-04-23T06:09:05.312Z,100101.88
2023-04-23T06:11:33.346Z,100100.69
2023-04-23T06:14:01.194Z,100099.50
2023-04-23T06:16:30.571Z,100107.03
2023-04-23T06:18:58.496Z,100105.75
2023-04-23T06:21:27.262Z,100111.56
2023-04-23T06:23:55.733Z,100109.63
2023-04-23T06:26:23.604Z,100114.94
2023-04-23T06:28:51.486Z,100114.69
2023-04-23T06:31:19.414Z,100111.81
2023-04-23T06:33:48.733Z,100111.66
2023-04-23T06:36:16.611Z,100106.22
2023-04-23T06:38:44.990Z,100113.09
2023-04-23T06:41:13.259Z,100118.25
2023-04-23T06:43:41.158Z,100125.38
2023-04-23T06:46:09.106Z,100131.47
2023-04-23T06:48:37.704Z,100129.66
2023-04-23T06:51:07.205Z,100118.09
2023-04-23T06:53:35.250Z,100120.75
2023-04-23T06:56:03.170Z,100123.47
2023-04-23T06:58:32.382Z,100115.41
2023-04-23T07:01:01.261Z,100118.91
2023-04-23T07:03:29.396Z,100124.19
2023-04-23T07:05:57.332Z,100107.16
2023-04-23T07:08:26.633Z,100109.63
2023-04-23T07:10:54.527Z,100108.59
2023-04-23T07:13:22.394Z,100117.19
2023-04-23T07:15:50.303Z,100112.09
2023-04-23T07:18:18.234Z,100113.81
2023-04-23T07:20:46.076Z,100111.28
2023-04-23T07:23:13.967Z,100118.19
2023-04-23T07:25:43.230Z,100113.75
2023-04-23T07:28:11.280Z,100120.97
2023-04-23T07:30:39.199Z,100125.66
2023-04-23T07:33:07.127Z,100128.81
2023-04-23T07:35:35.387Z,100119.84
2023-04-23T07:38:04.295Z,100125.75
2023-04-23T07:40:32.187Z,100122.78
2023-04-23T07:43:01.428Z,100136.59
2023-04-23T07:45:29.286Z,100129.06
2023-04-23T07:47:57.677Z,100132.94
2023-04-23T07:50:25.578Z,100133.97
2023-04-23T07:52:53.561Z,100128.81
2023-04-23T07:55:21.747Z,100127.25
2023-04-23T07:57:49.659Z,100132.78
2023-04-23T08:00:20.653Z,100131.34
2023-04-23T08:02:48.860Z,100125.47
2023-04-23T08:05:16.867Z,100125.31
2023-04-23T08:07:44.770Z,100131.66
2023-04-23T08:10:13.045Z,100132.41
2023-04-23T08:12:41.150Z,100135.94
2023-04-23T08:15:09.952Z,100134.75
2023-04-23T08:17:39.478Z,100139.03
2023-04-23T08:20:08.530Z,100138.41
2023-04-23T08:22:36.762Z,100141.09
2023-04-23T08:25:05.646Z,100130.41
2023-04-23T08:27:33.565Z,100142.53
2023-04-23T08:30:01.450Z,100137.72
2023-04-23T08:32:30.674Z,100133.97
2023-04-23T08:34:59.968Z,100141.00
2023-04-23T08:37:31.379Z,100138.09
2023-04-23T08:39:59.730Z,100147.22
2023-04-23T08:42:34.114Z,100139.66
2023-04-23T08:45:02.027Z,100141.59
2023-04-23T08:47:30.069Z,100138.25
2023-04-23T08:50:00.188Z,100137.81
2023-04-23T08:52:28.569Z,100146.91
2023-04-23T08:54:59.782Z,100137.03
2023-04-23T08:57:27.834Z,100146.56
2023-04-23T08:59:56.355Z,100135.09
2023-04-23T09:02:24.388Z,100138.78
2023-04-23T09:04:56.206Z,100151.13
2023-04-23T09:07:25.877Z,100144.31
2023-04-23T09:09:53.965Z,100141.78
2023-04-23T09:12:22.288Z,100141.13
2023-04-23T09:14:51.023Z,100152.06
2023-04-23T09:17:19.483Z,100152.41
2023-04-23T09:19:47.487Z,100150.47
2023-04-23T09:22:15.878Z,100151.75
2023-04-23T09:24:45.153Z,100149.06
2023-04-23T09:29:41.419Z,100151.09
2023-04-23T09:32:10.406Z,100155.72
2023-04-23T09:34:38.588Z,100155.59
2023-04-23T09:37:07.948Z,100157.19
2023-04-23T09:39:36.081Z,100162.56
2023-04-23T09:42:08.001Z,100161.50
2023-04-23T09:44:36.140Z,100158.38
2023-04-23T09:47:09.778Z,100165.34
2023-04-23T09:49:47.312Z,100165.13
2023-04-23T09:52:15.289Z,100163.41
2023-04-23T09:54:43.894Z,100169.28
2023-04-23T09:57:13.474Z,100165.63
2023-04-23T09:59:48.806Z,100172.91
2023-04-23T10:02:19.998Z,100176.78
2023-04-23T10:04:54.596Z,100167.16
2023-04-23T10:07:26.473Z,100182.69
2023-04-23T10:09:54.456Z,100182.78
2023-04-23T10:14:57.524Z,100182.13
2023-04-23T10:17:25.443Z,100183.63
2023-04-23T10:19:53.325Z,100188.34
2023-04-23T10:22:21.244Z,100189.41
2023-04-23T10:24:51.476Z,100189.06
2023-04-23T10:29:52.176Z,100195.56
2023-04-23T10:32:20.085Z,100203.22
2023-04-23T10:34:48.165Z,100206.75
2023-04-23T10:37:16.420Z,100206.19
2023-04-23T10:39:46.024Z,100209.28
2023-04-23T10:42:14.579Z,100209.13
2023-04-23T10:47:16.166Z,100216.97
2023-04-23T10:49:44.258Z,100213.19
2023-04-23T10:52:20.074Z,100197.47
2023-04-23T10:54:50.673Z,100224.81
2023-04-23T10:57:19.256Z,100224.44
2023-04-23T10:59:53.266Z,100234.31
2023-04-23T11:02:24.301Z,100231.53
2023-04-23T11:04:56.065Z,100227.69
2023-04-23T11:07:27.179Z,100234.16
2023-04-23T11:09:57.707Z,100231.59
2023-04-23T11:12:34.958Z,100233.78
2023-04-23T11:15:11.522Z,100240.13
2023-04-23T11:18:01.721Z,100236.53
2023-04-23T11:20:29.687Z,100235.69
2023-04-23T11:22:57.961Z,100239.22
2023-04-23T11:25:26.897Z,100247.13
2023-04-23T11:27:55.724Z,100238.25
2023-04-23T11:30:24.994Z,100240.06
2023-04-23T11:32:53.846Z,100246.34
2023-04-23T11:35:24.572Z,100248.34
2023-04-23T11:37:52.582Z,100247.34
2023-04-23T11:40:21.081Z,100241.09
2023-04-23T11:42:50.693Z,100240.06
2023-04-23T11:45:19.018Z,100246.22
2023-04-23T11:47:48.325Z,100239.84
2023-04-23T11:50:20.309Z,100245.91
2023-04-23T11:52:49.647Z,100239.38
2023-04-23T11:55:17.940Z,100244.63
2023-04-23T11:57:46.402Z,100238.19
2023-04-23T12:00:16.495Z,100246.91
2023-04-23T12:02:54.884Z,100249.88
2023-04-23T12:05:23.762Z,100249.03
2023-04-23T12:07:53.362Z,100254.28
2023-04-23T12:10:21.581Z,100249.56
2023-04-23T12:12:53.472Z,100250.19
2023-04-23T12:15:21.768Z,100253.41
2023-04-23T12:17:51.239Z,100256.84
2023-04-23T12:20:21.260Z,100254.72
2023-04-23T12:22:49.229Z,100263.69
2023-04-23T12:25:18.486Z,100252.69
2023-04-23T12:27:47.272Z,100262.28
2023-04-23T12:30:15.487Z,100246.63
2023-04-23T12:32:43.539Z,100262.56
2023-04-23T12:35:12.159Z,100255.84
2023-04-23T12:37:40.305Z,100263.72
2023-04-23T12:40:09.384Z,100267.41
2023-04-23T12:42:38.715Z,100262.53
2023-04-23T12:45:08.362Z,100260.72
2023-04-23T12:47:36.582Z,100258.53
2023-04-23T12:50:05.721Z,100258.53
2023-04-23T12:52:33.770Z,100256.56
2023-04-23T12:55:01.734Z,100257.38
2023-04-23T12:57:29.624Z,100259.19
2023-04-23T12:59:59.053Z,100254.25
2023-04-23T13:02:27.092Z,100261.81
2023-04-23T13:05:00.735Z,100264.63
2023-04-23T13:07:29.079Z,100270.31
2023-04-23T13:09:59.562Z,100268.78
2023-04-23T13:12:27.614Z,100281.72
2023-04-23T13:14:55.555Z,100283.66
2023-04-23T13:17:26.266Z,100284.53
2023-04-23T13:19:54.545Z,100284.41
2023-04-23T13:22:22.485Z,100289.34
2023-04-23T13:24:50.347Z,100289.34
2023-04-23T13:27:18.237Z,100285.94
2023-04-23T13:29:46.100Z,100302.50
2023-04-23T13:32:14.536Z,100302.19
2023-04-23T13:34:44.166Z,100295.59
2023-04-23T13:37:12.186Z,100307.16
2023-04-23T13:42:10.326Z,100299.13
2023-04-23T13:44:38.481Z,100301.03
2023-04-23T13:47:06.638Z,100305.97
2023-04-23T13:49:34.517Z,100306.06
2023-04-23T13:52:06.625Z,100302.34
2023-04-23T13:54:35.547Z,100307.69
2023-04-23T13:57:03.684Z,100313.78
2023-04-23T13:59:31.602Z,100322.94
2023-04-23T14:01:59.588Z,100322.78
2023-04-23T14:04:27.869Z,100337.94
2023-04-23T14:06:56.183Z,100337.81
2023-04-23T14:09:25.578Z,100335.09
2023-04-23T14:11:53.453Z,100340.91
2023-04-23T14:14:21.370Z,100342.44
2023-04-23T14:16:49.311Z,100341.03
2023-04-23T14:19:17.376Z,100347.38
2023-04-23T14:21:45.672Z,100348.00
2023-04-23T14:24:18.702Z,100347.91
2023-04-23T14:26:50.369Z,100349.03
2023-04-23T14:29:25.826Z,100353.22
2023-04-23T14:31:56.022Z,100355.09
2023-04-23T14:34:23.906Z,100356.56
2023-04-23T14:36:53.243Z,100367.13
2023-04-23T14:39:22.655Z,100360.41
2023-04-23T14:41:52.033Z,100360.69
2023-04-23T14:44:19.949Z,100369.94
2023-04-23T14:46:50.080Z,100347.44
2023-04-23T14:49:18.037Z,100363.19
2023-04-23T14:51:46.004Z,100366.00
2023-04-23T14:54:13.957Z,100361.19
2023-04-23T14:56:42.124Z,100360.72
2023-04-23T14:59:11.583Z,100370.19
2023-04-23T15:01:39.490Z,100376.59
2023-04-23T15:04:07.466Z,100381.06
2023-04-23T15:06:35.398Z,100395.78
2023-04-23T15:09:03.377Z,100395.06
2023-04-23T15:11:31.374Z,100399.13
2023-04-23T15:14:03.728Z,100397.72
2023-04-23T15:19:06.355Z,100402.13
2023-04-23T15:21:34.233Z,100398.19
2023-04-23T15:24:02.147Z,100402.66
2023-04-23T15:26:30.279Z,100404.03
2023-04-23T15:28:58.185Z,100409.34
2023-04-23T15:31:26.062Z,100410.34
2023-04-23T15:33:55.385Z,100398.28
2023-04-23T15:36:23.266Z,100421.66
2023-04-23T15:38:51.120Z,100421.91
2023-04-23T15:41:19.060Z,100425.44
2023-04-23T15:43:50.358Z,100433.41
2023-04-23T15:46:18.354Z,100431.81
2023-04-23T15:48:46.345Z,100431.94
2023-04-23T15:51:16.190Z,100442.47
2023-04-23T15:53:44.065Z,100449.91
2023-04-23T15:56:12.221Z,100454.44
2023-04-23T15:58:40.109Z,100437.81
2023-04-23T16:01:09.898Z,100451.75
2023-04-23T16:03:38.108Z,100445.66
2023-04-23T16:06:06.660Z,100450.97
2023-04-23T16:08:36.208Z,100453.53
2023-04-23T16:11:04.855Z,100463.00
2023-04-23T16:13:32.735Z,100458.72
2023-04-23T16:16:00.702Z,100457.25
2023-04-23T16:18:28.599Z,100448.78
2023-04-23T16:20:57.132Z,100452.56
2023-04-23T16:23:24.999Z,100461.56
2023-04-23T16:25:55.462Z,100456.09
2023-04-23T16:28:23.437Z,100453.44
2023-04-23T16:30:51.341Z,100451.69
2023-04-23T16:33:19.259Z,100455.75
2023-04-23T16:35:47.190Z,100459.69
2023-04-23T16:38:15.608Z,100456.97
2023-04-23T16:40:47.127Z,100458.53
2023-04-23T16:43:16.483Z,100467.03
2023-04-23T16:45:44.347Z,100466.03
2023-04-23T16:48:13.907Z,100475.28
2023-04-23T16:50:43.118Z,100471.59
2023-04-23T16:53:11.242Z,100478.56
2023-04-23T16:55:39.093Z,100483.97
2023-04-23T16:58:07.015Z,100482.19
2023-04-23T17:00:36.337Z,100479.69
2023-04-23T17:03:04.497Z,100481.84
2023-04-23T17:05:33.814Z,100483.16
2023-04-23T17:08:01.778Z,100487.97
2023-04-23T17:10:30.167Z,100494.53
2023-04-23T17:12:58.367Z,100492.53
2023-04-23T17:15:26.967Z,100490.78
2023-04-23T17:17:58.630Z,100498.06
2023-04-23T17:20:27.320Z,100497.91
2023-04-23T17:22:56.012Z,100497.00
2023-04-23T17:25:24.344Z,100499.75
2023-04-23T17:27:52.682Z,100502.03
2023-04-23T17:30:21.262Z,100500.88
2023-04-23T17:32:49.764Z,100512.63
2023-04-23T17:35:19.557Z,100509.56
2023-04-23T17:37:47.931Z,100519.84
2023-04-23T17:40:16.144Z,100521.59
2023-04-23T17:42:44.223Z,100530.09
2023-04-23T17:45:12.611Z,100536.03
2023-04-23T17:47:40.981Z,100530.78
2023-04-23T17:50:11.677Z,100536.16
2023-04-23T17:52:41.210Z,100535.84
2023-04-23T17:55:09.631Z,100541.31
2023-04-23T17:57:37.575Z,100548.91
2023-04-23T18:00:09.683Z,100551.03
2023-04-23T18:02:40.399Z,100551.72
2023-04-23T18:05:09.503Z,100549.53
2023-04-23T18:07:37.421Z,100543.94
2023-04-23T18:10:08.176Z,100550.50
2023-04-23T18:12:36.395Z,100543.38
2023-04-23T18:15:04.357Z,100549.66
2023-04-23T18:17:32.284Z,100545.00
2023-04-23T18:20:01.102Z,100559.84
2023-04-23T18:22:28.965Z,100561.50
2023-04-23T18:24:56.881Z,100571.91
2023-04-23T18:27:27.229Z,100576.03
2023-04-23T18:29:57.748Z,100579.13
2023-04-23T18:32:34.516Z,100576.06
2023-04-23T18:35:03.004Z,100583.00
2023-04-23T18:37:35.136Z,100598.75
2023-04-23T18:40:03.832Z,100604.59
2023-04-23T18:42:33.265Z,100597.91
2023-04-23T18:45:04.073Z,100606.19
2023-04-23T18:47:33.209Z,100602.28
2023-04-23T18:50:02.579Z,100607.13
2023-04-23T18:52:30.509Z,100614.06
2023-04-23T18:54:58.370Z,100620.44
2023-04-23T18:57:26.584Z,100630.81
2023-04-23T18:59:55.879Z,100633.94
2023-04-23T19:02:34.388Z,100633.50
2023-04-23T19:05:03.631Z,100634.81
2023-04-23T19:07:32.562Z,100637.81
2023-04-23T19:10:00.516Z,100636.44
2023-04-23T19:12:28.378Z,100632.31
2023-04-23T19:14:57.627Z,100646.00
2023-04-23T19:17:25.562Z,100645.56
2023-04-23T19:19:53.421Z,100647.63
2023-04-23T19:22:23.974Z,100641.78
2023-04-23T19:24:52.223Z,100645.66
2023-04-23T19:27:20.109Z,100655.72
2023-04-23T19:29:48.433Z,100659.59
2023-04-23T19:32:18.081Z,100670.59
2023-04-23T19:34:46.411Z,100677.13
2023-04-23T19:37:14.251Z,100678.31
2023-04-23T19:39:42.558Z,100692.91
2023-04-23T19:42:10.797Z,100698.59
2023-04-23T19:44:38.687Z,100696.16
2023-04-23T19:47:06.707Z,100695.63
2023-04-23T19:49:36.029Z,100704.03
2023-04-23T19:52:03.926Z,100712.28
2023-04-23T19:54:31.805Z,100714.22
2023-04-23T19:56:59.701Z,100717.97
2023-04-23T19:59:27.565Z,100730.50
2023-04-23T20:01:56.101Z,100731.53
2023-04-23T20:04:24.168Z,100739.75
2023-04-23T20:06:53.530Z,100748.69
2023-04-23T20:09:23.332Z,100751.41
2023-04-23T20:11:51.271Z,100752.53
2023-04-23T20:14:19.218Z,100758.84
2023-04-23T20:16:47.478Z,100759.00
2023-04-23T20:19:15.495Z,100762.72
2023-04-23T20:21:43.856Z,100764.59
2023-04-23T20:24:13.274Z,100777.03
2023-04-23T20:26:41.822Z,100770.16
2023-04-23T20:29:09.737Z,100778.97
2023-04-23T20:31:37.785Z,100786.19
2023-04-23T20:34:05.679Z,100790.66
2023-04-23T20:36:33.831Z,100786.34
2023-04-23T20:39:03.382Z,100787.28
2023-04-23T20:41:34.379Z,100788.28
2023-04-23T20:44:03.170Z,100798.06
2023-04-23T20:46:32.186Z,100798.25
2023-04-23T20:49:03.312Z,100805.44
2023-04-23T20:51:33.215Z,100812.66
2023-04-23T20:54:01.600Z,100809.25
2023-04-23T20:56:29.836Z,100813.78
2023-04-23T20:58:59.091Z,100812.00
2023-04-23T21:01:26.936Z,100818.34
2023-04-23T21:03:55.012Z,100813.00
2023-04-23T21:06:23.108Z,100817.53
2023-04-23T21:08:51.032Z,100827.41
2023-04-23T21:11:20.391Z,100815.00
2023-04-23T21:13:48.258Z,100824.88
2023-04-23T21:16:17.523Z,100820.56
2023-04-23T21:18:45.434Z,100825.97
2023-04-23T21:21:13.451Z,100830.41
2023-04-23T21:23:41.570Z,100825.25
2023-04-23T21:26:09.460Z,100826.97
2023-04-23T21:28:37.388Z,100832.38
2023-04-23T21:31:11.438Z,100831.63
2023-04-23T21:33:40.837Z,100830.00
2023-04-23T21:36:08.916Z,100838.84
2023-04-23T21:38:36.911Z,100837.25
2023-04-23T21:41:04.824Z,100846.25
2023-04-23T21:43:35.516Z,100847.03
2023-04-23T21:46:03.412Z,100847.13
2023-04-23T21:48:32.023Z,100841.78
2023-04-23T21:51:02.286Z,100844.59
2023-04-23T21:53:30.207Z,100848.13
2023-04-23T21:55:58.512Z,100843.78
2023-04-23T21:58:26.515Z,100842.91
2023-04-23T22:00:54.583Z,100843.09
2023-04-23T22:03:38.505Z,100848.31
2023-04-23T22:06:09.502Z,100849.28
2023-04-23T22:08:39.338Z,100855.53
2023-04-23T22:11:08.016Z,100855.53
2023-04-23T22:13:35.975Z,100857.31
2023-04-23T22:16:06.571Z,100860.94
2023-04-23T22:18:39.764Z,100860.06
2023-04-23T22:21:09.135Z,100865.38
2023-04-23T22:23:37.054Z,100861.84
2023-04-23T22:26:04.994Z,100860.13
2023-04-23T22:28:32.875Z,100865.50
2023-04-23T22:31:01.476Z,100873.44
2023-04-23T22:33:30.008Z,100880.56
2023-04-23T22:35:59.147Z,100887.66
2023-04-23T22:38:28.645Z,100889.47
2023-04-23T22:40:56.519Z,100888.63
2023-04-23T22:43:24.468Z,100890.47
2023-04-23T22:45:52.353Z,100887.88
2023-04-23T22:48:20.346Z,100893.00
2023-04-23T22:50:50.861Z,100891.91
2023-04-23T22:53:19.589Z,100899.56
2023-04-23T22:55:49.494Z,100893.16
2023-04-23T22:58:17.329Z,100888.72
2023-04-23T23:00:45.219Z,100899.22
2023-04-23T23:03:13.267Z,100895.63
2023-04-23T23:05:41.344Z,100892.97
2023-04-23T23:08:09.245Z,100896.50
2023-04-23T23:10:37.145Z,100891.28
2023-04-23T23:13:06.393Z,100888.78
2023-04-23T23:15:34.372Z,100890.72
2023-04-23T23:18:02.430Z,100890.72
2023-04-23T23:20:30.368Z,100894.31
2023-04-23T23:22:58.240Z,100898.78
2023-04-23T23:25:26.161Z,100903.16
2023-04-23T23:27:54.091Z,100899.50
2023-04-23T23:30:23.347Z,100909.66
2023-04-23T23:32:51.240Z,100902.28
2023-04-23T23:35:19.240Z,100904.56
2023-04-23T23:37:47.130Z,100902.63
2023-04-23T23:40:15.011Z,100906.88
2023-04-23T23:42:42.896Z,100916.53
2023-04-23T23:45:11.523Z,100911.34
2023-04-23T23:47:41.130Z,100916.78
2023-04-23T23:50:09.813Z,100917.00
2023-04-23T23:52:37.663Z,100911.06
2023-04-23T23:55:06.612Z,100912.09
2023-04-23T23:57:34.435Z,100909.72
